sensor_id;sensor_type;location;lat;lon;timestamp;P1;durP1;ratioP1;P2;durP2;ratioP2
34212;SDS011;20477;51.390;8.102;2023-02-15T04:33:18;21.20;;;12.80;;
34212;SDS011;20477;51.390;8.102;2023-02-15T04:36:14;20.88;;;12.32;;
34212;SDS011;20477;51.390;8.102;2023-02-15T04:39:11;25.25;;;13.13;;
34212;SDS011;20477;51.390;8.102;2023-02-15T04:42:08;23.02;;;11.77;;
34212;SDS011;20477;51.390;8.102;2023-02-15T04:45:04;24.45;;;13.00;;
34212;SDS011;20477;51.390;8.102;2023-02-15T04:48:00;23.30;;;12.82;;
34212;SDS011;20477;51.390;8.102;2023-02-15T05:45:44;25.67;;;12.63;;
34212;SDS011;20477;51.390;8.102;2023-02-15T05:48:40;26.00;;;13.07;;
34212;SDS011;20477;51.390;8.102;2023-02-15T05:51:36;18.80;;;10.43;;
34212;SDS011;20477;51.390;8.102;2023-02-15T05:54:32;21.65;;;12.73;;
34212;SDS011;20477;51.390;8.102;2023-02-15T05:57:27;22.42;;;12.15;;
34212;SDS011;20477;51.390;8.102;2023-02-15T06:31:10;22.33;;;12.40;;
34212;SDS011;20477;51.390;8.102;2023-02-15T06:33:45;23.98;;;13.50;;
34212;SDS011;20477;51.390;8.102;2023-02-15T06:36:41;26.10;;;11.98;;
34212;SDS011;20477;51.390;8.102;2023-02-15T06:39:12;20.73;;;11.30;;
34212;SDS011;20477;51.390;8.102;2023-02-15T06:41:46;24.20;;;15.02;;
34212;SDS011;20477;51.390;8.102;2023-02-15T06:48:14;20.77;;;13.00;;
34212;SDS011;20477;51.390;8.102;2023-02-15T06:50:45;22.95;;;11.85;;
34212;SDS011;20477;51.390;8.102;2023-02-15T06:55:48;18.23;;;10.38;;
34212;SDS011;20477;51.390;8.102;2023-02-15T06:58:24;20.73;;;12.68;;
34212;SDS011;20477;51.390;8.102;2023-02-15T07:00:56;19.42;;;11.73;;
34212;SDS011;20477;51.390;8.102;2023-02-15T07:06:05;24.58;;;11.38;;
34212;SDS011;20477;51.390;8.102;2023-02-15T07:08:39;22.52;;;11.60;;
34212;SDS011;20477;51.390;8.102;2023-02-15T07:11:24;18.88;;;10.75;;
34212;SDS011;20477;51.390;8.102;2023-02-15T07:14:41;17.95;;;10.18;;
34212;SDS011;20477;51.390;8.102;2023-02-15T07:17:12;22.15;;;10.75;;
34212;SDS011;20477;51.390;8.102;2023-02-15T07:20:05;20.98;;;11.02;;
34212;SDS011;20477;51.390;8.102;2023-02-15T07:25:26;18.08;;;9.70;;
34212;SDS011;20477;51.390;8.102;2023-02-15T07:28:27;22.20;;;10.95;;
34212;SDS011;20477;51.390;8.102;2023-02-15T07:31:01;19.65;;;11.77;;
34212;SDS011;20477;51.390;8.102;2023-02-15T07:33:35;18.67;;;11.27;;
34212;SDS011;20477;51.390;8.102;2023-02-15T07:36:16;21.27;;;10.43;;
34212;SDS011;20477;51.390;8.102;2023-02-15T07:38:53;19.85;;;10.60;;
34212;SDS011;20477;51.390;8.102;2023-02-15T07:41:36;16.50;;;9.60;;
34212;SDS011;20477;51.390;8.102;2023-02-15T07:44:20;18.30;;;10.98;;
34212;SDS011;20477;51.390;8.102;2023-02-15T07:49:42;18.95;;;9.60;;
34212;SDS011;20477;51.390;8.102;2023-02-15T07:52:29;15.70;;;10.00;;
34212;SDS011;20477;51.390;8.102;2023-02-15T07:54:58;23.45;;;10.80;;
34212;SDS011;20477;51.390;8.102;2023-02-15T07:57:26;23.85;;;10.85;;
34212;SDS011;20477;51.390;8.102;2023-02-15T07:59:59;17.33;;;8.77;;
34212;SDS011;20477;51.390;8.102;2023-02-15T08:02:34;23.50;;;11.10;;
34212;SDS011;20477;51.390;8.102;2023-02-15T08:05:13;21.42;;;10.77;;
34212;SDS011;20477;51.390;8.102;2023-02-15T08:07:53;23.33;;;10.23;;
34212;SDS011;20477;51.390;8.102;2023-02-15T08:10:32;19.70;;;11.57;;
34212;SDS011;20477;51.390;8.102;2023-02-15T08:13:28;28.50;;;10.68;;
34212;SDS011;20477;51.390;8.102;2023-02-15T08:16:13;27.48;;;11.02;;
34212;SDS011;20477;51.390;8.102;2023-02-15T08:19:25;19.85;;;10.40;;
34212;SDS011;20477;51.390;8.102;2023-02-15T08:22:02;20.70;;;8.93;;
34212;SDS011;20477;51.390;8.102;2023-02-15T08:24:40;18.63;;;10.93;;
34212;SDS011;20477;51.390;8.102;2023-02-15T08:27:36;16.88;;;9.73;;
34212;SDS011;20477;51.390;8.102;2023-02-15T08:30:13;20.33;;;10.95;;
34212;SDS011;20477;51.390;8.102;2023-02-15T08:32:48;18.85;;;10.45;;
34212;SDS011;20477;51.390;8.102;2023-02-15T08:35:19;18.75;;;10.38;;
34212;SDS011;20477;51.390;8.102;2023-02-15T08:37:56;18.98;;;10.40;;
34212;SDS011;20477;51.390;8.102;2023-02-15T08:40:41;23.77;;;11.45;;
34212;SDS011;20477;51.390;8.102;2023-02-15T08:43:35;26.17;;;11.13;;
34212;SDS011;20477;51.390;8.102;2023-02-15T08:46:09;24.60;;;11.93;;
34212;SDS011;20477;51.390;8.102;2023-02-15T08:48:44;21.55;;;11.65;;
34212;SDS011;20477;51.390;8.102;2023-02-15T08:51:17;18.15;;;11.07;;
34212;SDS011;20477;51.390;8.102;2023-02-15T08:53:58;21.02;;;11.10;;
34212;SDS011;20477;51.390;8.102;2023-02-15T08:59:38;24.52;;;12.15;;
34212;SDS011;20477;51.390;8.102;2023-02-15T09:02:36;19.17;;;11.85;;
34212;SDS011;20477;51.390;8.102;2023-02-15T09:05:19;23.98;;;12.10;;
34212;SDS011;20477;51.390;8.102;2023-02-15T09:07:53;24.65;;;11.25;;
34212;SDS011;20477;51.390;8.102;2023-02-15T09:10:30;21.92;;;11.45;;
34212;SDS011;20477;51.390;8.102;2023-02-15T09:13:03;22.23;;;12.07;;
34212;SDS011;20477;51.390;8.102;2023-02-15T09:15:33;27.98;;;13.48;;
34212;SDS011;20477;51.390;8.102;2023-02-15T09:18:10;22.55;;;11.65;;
34212;SDS011;20477;51.390;8.102;2023-02-15T09:21:03;21.10;;;11.40;;
34212;SDS011;20477;51.390;8.102;2023-02-15T09:23:32;21.98;;;11.45;;
34212;SDS011;20477;51.390;8.102;2023-02-15T09:26:14;21.55;;;11.75;;
34212;SDS011;20477;51.390;8.102;2023-02-15T09:29:18;22.33;;;10.95;;
34212;SDS011;20477;51.390;8.102;2023-02-15T09:32:02;24.25;;;11.68;;
34212;SDS011;20477;51.390;8.102;2023-02-15T09:34:48;23.20;;;11.63;;
34212;SDS011;20477;51.390;8.102;2023-02-15T09:37:20;23.83;;;11.48;;
34212;SDS011;20477;51.390;8.102;2023-02-15T09:39:53;24.65;;;12.25;;
34212;SDS011;20477;51.390;8.102;2023-02-15T09:45:28;22.73;;;10.80;;
34212;SDS011;20477;51.390;8.102;2023-02-15T09:48:12;25.10;;;12.10;;
34212;SDS011;20477;51.390;8.102;2023-02-15T09:54:09;27.27;;;12.75;;
34212;SDS011;20477;51.390;8.102;2023-02-15T09:56:45;25.77;;;12.00;;
34212;SDS011;20477;51.390;8.102;2023-02-15T09:59:30;23.63;;;12.35;;
34212;SDS011;20477;51.390;8.102;2023-02-15T10:02:14;25.02;;;12.23;;
34212;SDS011;20477;51.390;8.102;2023-02-15T10:04:51;22.52;;;11.93;;
34212;SDS011;20477;51.390;8.102;2023-02-15T10:07:33;28.05;;;12.75;;
34212;SDS011;20477;51.390;8.102;2023-02-15T10:10:22;23.92;;;12.85;;
34212;SDS011;20477;51.390;8.102;2023-02-15T10:12:57;28.65;;;11.90;;
34212;SDS011;20477;51.390;8.102;2023-02-15T10:15:37;23.13;;;12.07;;
34212;SDS011;20477;51.390;8.102;2023-02-15T10:21:19;24.42;;;11.52;;
34212;SDS011;20477;51.390;8.102;2023-02-15T10:27:47;21.20;;;11.73;;
34212;SDS011;20477;51.390;8.102;2023-02-15T10:30:31;20.48;;;11.82;;
34212;SDS011;20477;51.390;8.102;2023-02-15T10:33:15;20.98;;;11.30;;
34212;SDS011;20477;51.390;8.102;2023-02-15T10:36:48;18.67;;;10.43;;
34212;SDS011;20477;51.390;8.102;2023-02-15T10:39:43;21.00;;;11.75;;
34212;SDS011;20477;51.390;8.102;2023-02-15T10:42:23;25.10;;;11.70;;
34212;SDS011;20477;51.390;8.102;2023-02-15T10:45:17;22.92;;;11.05;;
34212;SDS011;20477;51.390;8.102;2023-02-15T10:48:06;25.90;;;11.82;;
34212;SDS011;20477;51.390;8.102;2023-02-15T10:50:59;21.10;;;10.98;;
34212;SDS011;20477;51.390;8.102;2023-02-15T10:53:51;21.67;;;11.68;;
34212;SDS011;20477;51.390;8.102;2023-02-15T10:56:30;31.30;;;11.93;;
34212;SDS011;20477;51.390;8.102;2023-02-15T10:59:11;19.00;;;10.60;;
34212;SDS011;20477;51.390;8.102;2023-02-15T11:02:00;20.23;;;10.48;;
34212;SDS011;20477;51.390;8.102;2023-02-15T11:04:58;20.77;;;11.32;;
34212;SDS011;20477;51.390;8.102;2023-02-15T11:07:38;20.73;;;10.40;;
34212;SDS011;20477;51.390;8.102;2023-02-15T11:13:31;18.33;;;9.80;;
34212;SDS011;20477;51.390;8.102;2023-02-15T11:16:11;18.60;;;10.50;;
34212;SDS011;20477;51.390;8.102;2023-02-15T11:21:53;21.23;;;10.07;;
34212;SDS011;20477;51.390;8.102;2023-02-15T11:24:26;18.00;;;10.38;;
34212;SDS011;20477;51.390;8.102;2023-02-15T11:27:02;16.65;;;10.13;;
34212;SDS011;20477;51.390;8.102;2023-02-15T11:29:44;26.08;;;11.07;;
34212;SDS011;20477;51.390;8.102;2023-02-15T11:32:52;16.58;;;9.40;;
34212;SDS011;20477;51.390;8.102;2023-02-15T11:35:24;17.48;;;9.82;;
34212;SDS011;20477;51.390;8.102;2023-02-15T11:38:21;18.30;;;10.35;;
34212;SDS011;20477;51.390;8.102;2023-02-15T11:40:55;19.80;;;9.07;;
34212;SDS011;20477;51.390;8.102;2023-02-15T11:43:28;17.02;;;9.93;;
34212;SDS011;20477;51.390;8.102;2023-02-15T11:46:00;19.88;;;10.23;;
34212;SDS011;20477;51.390;8.102;2023-02-15T11:48:31;16.75;;;8.77;;
34212;SDS011;20477;51.390;8.102;2023-02-15T11:51:04;15.98;;;8.70;;
34212;SDS011;20477;51.390;8.102;2023-02-15T11:53:40;15.60;;;8.60;;
34212;SDS011;20477;51.390;8.102;2023-02-15T11:56:20;23.00;;;9.52;;
34212;SDS011;20477;51.390;8.102;2023-02-15T11:58:58;14.95;;;9.23;;
34212;SDS011;20477;51.390;8.102;2023-02-15T12:01:43;22.75;;;10.10;;
34212;SDS011;20477;51.390;8.102;2023-02-15T12:04:28;21.30;;;9.10;;
34212;SDS011;20477;51.390;8.102;2023-02-15T12:07:13;19.33;;;8.77;;
34212;SDS011;20477;51.390;8.102;2023-02-15T12:10:04;16.73;;;7.97;;
34212;SDS011;20477;51.390;8.102;2023-02-15T12:12:48;14.93;;;7.57;;
34212;SDS011;20477;51.390;8.102;2023-02-15T12:15:34;11.80;;;7.38;;
34212;SDS011;20477;51.390;8.102;2023-02-15T12:18:03;14.05;;;7.72;;
34212;SDS011;20477;51.390;8.102;2023-02-15T12:20:33;14.07;;;6.78;;
34212;SDS011;20477;51.390;8.102;2023-02-15T12:23:03;10.52;;;4.40;;
34212;SDS011;20477;51.390;8.102;2023-02-15T12:25:33;7.93;;;4.50;;
34212;SDS011;20477;51.390;8.102;2023-02-15T12:28:04;12.68;;;4.72;;
34212;SDS011;20477;51.390;8.102;2023-02-15T12:30:44;10.02;;;4.35;;
34212;SDS011;20477;51.390;8.102;2023-02-15T12:33:14;8.52;;;4.13;;
34212;SDS011;20477;51.390;8.102;2023-02-15T12:35:44;7.65;;;4.57;;
34212;SDS011;20477;51.390;8.102;2023-02-15T12:38:21;7.63;;;4.55;;
34212;SDS011;20477;51.390;8.102;2023-02-15T12:40:56;7.63;;;4.32;;
34212;SDS011;20477;51.390;8.102;2023-02-15T12:43:26;6.93;;;4.50;;
34212;SDS011;20477;51.390;8.102;2023-02-15T12:46:07;7.55;;;4.68;;
34212;SDS011;20477;51.390;8.102;2023-02-15T12:48:41;8.70;;;4.38;;
34212;SDS011;20477;51.390;8.102;2023-02-15T12:51:12;8.52;;;4.15;;
34212;SDS011;20477;51.390;8.102;2023-02-15T12:53:41;6.90;;;4.45;;
34212;SDS011;20477;51.390;8.102;2023-02-15T12:56:10;10.75;;;4.53;;
34212;SDS011;20477;51.390;8.102;2023-02-15T12:58:38;7.55;;;4.80;;
34212;SDS011;20477;51.390;8.102;2023-02-15T13:01:13;14.65;;;4.85;;
34212;SDS011;20477;51.390;8.102;2023-02-15T13:03:55;7.90;;;4.63;;
34212;SDS011;20477;51.390;8.102;2023-02-15T13:06:25;7.80;;;4.57;;
34212;SDS011;20477;51.390;8.102;2023-02-15T13:08:54;7.55;;;4.72;;
34212;SDS011;20477;51.390;8.102;2023-02-15T13:11:24;7.75;;;4.90;;
34212;SDS011;20477;51.390;8.102;2023-02-15T13:13:57;10.27;;;4.72;;
34212;SDS011;20477;51.390;8.102;2023-02-15T13:16:29;15.82;;;5.80;;
34212;SDS011;20477;51.390;8.102;2023-02-15T13:18:58;8.50;;;4.82;;
34212;SDS011;20477;51.390;8.102;2023-02-15T13:21:31;9.95;;;4.88;;
34212;SDS011;20477;51.390;8.102;2023-02-15T13:24:02;9.23;;;5.40;;
34212;SDS011;20477;51.390;8.102;2023-02-15T13:26:34;15.23;;;6.53;;
34212;SDS011;20477;51.390;8.102;2023-02-15T13:29:05;13.77;;;7.03;;
34212;SDS011;20477;51.390;8.102;2023-02-15T13:31:38;10.20;;;6.28;;
34212;SDS011;20477;51.390;8.102;2023-02-15T13:34:09;17.33;;;7.85;;
34212;SDS011;20477;51.390;8.102;2023-02-15T13:36:41;11.75;;;6.47;;
34212;SDS011;20477;51.390;8.102;2023-02-15T13:39:18;15.57;;;7.50;;
34212;SDS011;20477;51.390;8.102;2023-02-15T13:41:52;15.52;;;7.53;;
34212;SDS011;20477;51.390;8.102;2023-02-15T13:44:29;14.77;;;7.55;;
34212;SDS011;20477;51.390;8.102;2023-02-15T13:47:11;12.68;;;6.72;;
34212;SDS011;20477;51.390;8.102;2023-02-15T13:49:47;21.33;;;7.18;;
34212;SDS011;20477;51.390;8.102;2023-02-15T13:52:23;12.88;;;6.72;;
34212;SDS011;20477;51.390;8.102;2023-02-15T13:57:51;15.13;;;8.82;;
34212;SDS011;20477;51.390;8.102;2023-02-15T14:00:32;22.15;;;8.75;;
34212;SDS011;20477;51.390;8.102;2023-02-15T14:03:24;15.80;;;7.85;;
34212;SDS011;20477;51.390;8.102;2023-02-15T14:06:06;13.93;;;7.35;;
34212;SDS011;20477;51.390;8.102;2023-02-15T14:08:45;17.05;;;8.63;;
34212;SDS011;20477;51.390;8.102;2023-02-15T14:11:21;15.23;;;7.85;;
34212;SDS011;20477;51.390;8.102;2023-02-15T14:13:58;23.98;;;8.57;;
34212;SDS011;20477;51.390;8.102;2023-02-15T14:16:37;11.45;;;7.03;;
34212;SDS011;20477;51.390;8.102;2023-02-15T14:19:20;16.80;;;8.30;;
34212;SDS011;20477;51.390;8.102;2023-02-15T14:21:54;17.77;;;7.70;;
34212;SDS011;20477;51.390;8.102;2023-02-15T14:24:27;16.27;;;7.05;;
34212;SDS011;20477;51.390;8.102;2023-02-15T14:27:04;14.68;;;7.53;;
34212;SDS011;20477;51.390;8.102;2023-02-15T14:29:41;14.75;;;7.55;;
34212;SDS011;20477;51.390;8.102;2023-02-15T14:32:16;13.23;;;7.30;;
34212;SDS011;20477;51.390;8.102;2023-02-15T14:34:50;17.55;;;8.68;;
34212;SDS011;20477;51.390;8.102;2023-02-15T14:37:22;16.43;;;8.20;;
34212;SDS011;20477;51.390;8.102;2023-02-15T14:40:00;13.43;;;7.22;;
34212;SDS011;20477;51.390;8.102;2023-02-15T14:42:56;14.38;;;7.35;;
34212;SDS011;20477;51.390;8.102;2023-02-15T14:45:28;17.85;;;7.88;;
34212;SDS011;20477;51.390;8.102;2023-02-15T14:48:02;15.13;;;7.53;;
34212;SDS011;20477;51.390;8.102;2023-02-15T14:50:44;10.52;;;6.97;;
34212;SDS011;20477;51.390;8.102;2023-02-15T14:53:16;12.02;;;7.28;;
34212;SDS011;20477;51.390;8.102;2023-02-15T14:56:04;17.17;;;7.68;;
34212;SDS011;20477;51.390;8.102;2023-02-15T15:01:51;14.35;;;7.72;;
34212;SDS011;20477;51.390;8.102;2023-02-15T15:04:25;12.98;;;7.30;;
34212;SDS011;20477;51.390;8.102;2023-02-15T15:06:59;12.52;;;6.85;;
34212;SDS011;20477;51.390;8.102;2023-02-15T15:09:29;13.45;;;7.35;;
34212;SDS011;20477;51.390;8.102;2023-02-15T15:12:12;14.90;;;6.72;;
34212;SDS011;20477;51.390;8.102;2023-02-15T15:14:56;12.95;;;6.47;;
34212;SDS011;20477;51.390;8.102;2023-02-15T15:26:23;17.13;;;6.72;;
34212;SDS011;20477;51.390;8.102;2023-02-15T15:28:56;16.33;;;7.22;;
34212;SDS011;20477;51.390;8.102;2023-02-15T15:31:28;12.82;;;6.57;;
34212;SDS011;20477;51.390;8.102;2023-02-15T15:40:25;14.68;;;7.05;;
34212;SDS011;20477;51.390;8.102;2023-02-15T15:43:14;17.27;;;7.10;;
34212;SDS011;20477;51.390;8.102;2023-02-15T15:49:14;16.83;;;6.57;;
34212;SDS011;20477;51.390;8.102;2023-02-15T15:51:44;17.30;;;7.05;;
34212;SDS011;20477;51.390;8.102;2023-02-15T15:54:14;12.88;;;6.18;;
34212;SDS011;20477;51.390;8.102;2023-02-15T15:56:46;12.40;;;6.15;;
34212;SDS011;20477;51.390;8.102;2023-02-15T15:59:17;14.27;;;6.25;;
34212;SDS011;20477;51.390;8.102;2023-02-15T16:01:47;10.43;;;6.13;;
34212;SDS011;20477;51.390;8.102;2023-02-15T16:04:22;11.68;;;6.20;;
34212;SDS011;20477;51.390;8.102;2023-02-15T16:06:52;9.60;;;5.85;;
34212;SDS011;20477;51.390;8.102;2023-02-15T16:09:21;12.75;;;7.10;;
34212;SDS011;20477;51.390;8.102;2023-02-15T16:11:52;11.02;;;5.90;;
34212;SDS011;20477;51.390;8.102;2023-02-15T16:14:24;14.10;;;5.55;;
34212;SDS011;20477;51.390;8.102;2023-02-15T16:16:54;16.02;;;6.25;;
34212;SDS011;20477;51.390;8.102;2023-02-15T16:19:25;15.77;;;7.25;;
34212;SDS011;20477;51.390;8.102;2023-02-15T16:21:54;11.30;;;6.20;;
34212;SDS011;20477;51.390;8.102;2023-02-15T16:24:38;15.73;;;6.63;;
34212;SDS011;20477;51.390;8.102;2023-02-15T16:27:35;14.32;;;7.25;;
34212;SDS011;20477;51.390;8.102;2023-02-15T16:30:26;15.23;;;7.70;;
34212;SDS011;20477;51.390;8.102;2023-02-15T16:33:02;16.73;;;7.78;;
34212;SDS011;20477;51.390;8.102;2023-02-15T16:35:31;23.45;;;9.68;;
34212;SDS011;20477;51.390;8.102;2023-02-15T16:38:00;14.52;;;8.05;;
34212;SDS011;20477;51.390;8.102;2023-02-15T16:40:33;17.30;;;7.95;;
34212;SDS011;20477;51.390;8.102;2023-02-15T16:43:10;15.52;;;8.10;;
34212;SDS011;20477;51.390;8.102;2023-02-15T16:45:43;18.75;;;8.07;;
34212;SDS011;20477;51.390;8.102;2023-02-15T16:48:12;15.63;;;8.68;;
34212;SDS011;20477;51.390;8.102;2023-02-15T16:50:46;36.85;;;22.67;;
34212;SDS011;20477;51.390;8.102;2023-02-15T16:53:17;23.42;;;10.90;;
34212;SDS011;20477;51.390;8.102;2023-02-15T16:55:48;19.15;;;10.30;;
34212;SDS011;20477;51.390;8.102;2023-02-15T16:58:22;20.98;;;10.27;;
34212;SDS011;20477;51.390;8.102;2023-02-15T17:01:00;19.15;;;8.70;;
34212;SDS011;20477;51.390;8.102;2023-02-15T17:03:29;16.45;;;7.78;;
34212;SDS011;20477;51.390;8.102;2023-02-15T17:05:58;15.40;;;7.55;;
34212;SDS011;20477;51.390;8.102;2023-02-15T17:08:28;15.55;;;7.85;;
34212;SDS011;20477;51.390;8.102;2023-02-15T17:11:05;14.27;;;8.13;;
34212;SDS011;20477;51.390;8.102;2023-02-15T17:17:01;14.85;;;7.55;;
34212;SDS011;20477;51.390;8.102;2023-02-15T17:19:33;17.00;;;8.27;;
34212;SDS011;20477;51.390;8.102;2023-02-15T17:22:14;13.65;;;7.00;;
34212;SDS011;20477;51.390;8.102;2023-02-15T17:24:45;17.95;;;7.85;;
34212;SDS011;20477;51.390;8.102;2023-02-15T17:27:16;14.93;;;7.95;;
34212;SDS011;20477;51.390;8.102;2023-02-15T17:29:46;25.27;;;11.10;;
34212;SDS011;20477;51.390;8.102;2023-02-15T17:32:20;19.13;;;9.63;;
34212;SDS011;20477;51.390;8.102;2023-02-15T17:34:56;21.40;;;10.70;;
34212;SDS011;20477;51.390;8.102;2023-02-15T17:37:27;22.17;;;10.75;;
34212;SDS011;20477;51.390;8.102;2023-02-15T17:39:58;28.77;;;13.27;;
34212;SDS011;20477;51.390;8.102;2023-02-15T17:42:27;46.88;;;24.17;;
34212;SDS011;20477;51.390;8.102;2023-02-15T17:44:55;29.40;;;17.52;;
34212;SDS011;20477;51.390;8.102;2023-02-15T17:47:24;34.70;;;19.38;;
34212;SDS011;20477;51.390;8.102;2023-02-15T17:49:55;41.33;;;22.58;;
34212;SDS011;20477;51.390;8.102;2023-02-15T17:52:23;30.92;;;17.23;;
34212;SDS011;20477;51.390;8.102;2023-02-15T17:54:52;43.15;;;21.50;;
34212;SDS011;20477;51.390;8.102;2023-02-15T17:57:37;32.38;;;18.50;;
34212;SDS011;20477;51.390;8.102;2023-02-15T18:00:06;47.60;;;23.27;;
34212;SDS011;20477;51.390;8.102;2023-02-15T18:02:54;39.70;;;16.95;;
34212;SDS011;20477;51.390;8.102;2023-02-15T18:05:39;26.13;;;15.32;;
34212;SDS011;20477;51.390;8.102;2023-02-15T18:08:26;25.77;;;14.70;;
34212;SDS011;20477;51.390;8.102;2023-02-15T18:11:12;18.02;;;10.70;;
34212;SDS011;20477;51.390;8.102;2023-02-15T18:13:57;22.23;;;10.82;;
34212;SDS011;20477;51.390;8.102;2023-02-15T18:16:27;23.63;;;12.35;;
34212;SDS011;20477;51.390;8.102;2023-02-15T18:18:59;19.42;;;11.98;;
34212;SDS011;20477;51.390;8.102;2023-02-15T18:21:30;24.05;;;12.27;;
34212;SDS011;20477;51.390;8.102;2023-02-15T18:23:58;23.15;;;11.60;;
34212;SDS011;20477;51.390;8.102;2023-02-15T18:26:27;24.65;;;13.63;;
34212;SDS011;20477;51.390;8.102;2023-02-15T18:28:56;25.00;;;13.68;;
34212;SDS011;20477;51.390;8.102;2023-02-15T18:31:24;23.60;;;12.50;;
34212;SDS011;20477;51.390;8.102;2023-02-15T18:33:52;26.40;;;15.13;;
34212;SDS011;20477;51.390;8.102;2023-02-15T18:36:23;25.45;;;13.18;;
34212;SDS011;20477;51.390;8.102;2023-02-15T18:38:53;25.67;;;14.02;;
34212;SDS011;20477;51.390;8.102;2023-02-15T18:41:21;26.02;;;13.23;;
34212;SDS011;20477;51.390;8.102;2023-02-15T18:43:49;22.70;;;13.13;;
34212;SDS011;20477;51.390;8.102;2023-02-15T18:46:19;21.88;;;12.20;;
34212;SDS011;20477;51.390;8.102;2023-02-15T18:48:47;27.88;;;13.45;;
34212;SDS011;20477;51.390;8.102;2023-02-15T18:51:15;28.80;;;13.77;;
34212;SDS011;20477;51.390;8.102;2023-02-15T18:53:47;28.60;;;12.70;;
34212;SDS011;20477;51.390;8.102;2023-02-15T18:56:17;27.52;;;15.48;;
34212;SDS011;20477;51.390;8.102;2023-02-15T18:58:47;23.13;;;12.32;;
34212;SDS011;20477;51.390;8.102;2023-02-15T19:01:16;27.10;;;13.48;;
34212;SDS011;20477;51.390;8.102;2023-02-15T19:03:45;29.10;;;14.68;;
34212;SDS011;20477;51.390;8.102;2023-02-15T19:06:14;37.20;;;22.10;;
34212;SDS011;20477;51.390;8.102;2023-02-15T19:08:44;23.20;;;13.13;;
34212;SDS011;20477;51.390;8.102;2023-02-15T19:11:16;27.92;;;14.45;;
34212;SDS011;20477;51.390;8.102;2023-02-15T19:13:45;35.38;;;17.73;;
34212;SDS011;20477;51.390;8.102;2023-02-15T19:16:18;40.00;;;20.92;;
34212;SDS011;20477;51.390;8.102;2023-02-15T19:18:54;51.92;;;27.73;;
34212;SDS011;20477;51.390;8.102;2023-02-15T19:21:22;56.55;;;30.25;;
34212;SDS011;20477;51.390;8.102;2023-02-15T19:23:53;46.42;;;24.50;;
34212;SDS011;20477;51.390;8.102;2023-02-15T19:26:23;42.08;;;21.85;;
34212;SDS011;20477;51.390;8.102;2023-02-15T19:29:09;30.77;;;16.85;;
34212;SDS011;20477;51.390;8.102;2023-02-15T19:31:39;24.83;;;14.98;;
34212;SDS011;20477;51.390;8.102;2023-02-15T19:34:14;37.80;;;18.10;;
34212;SDS011;20477;51.390;8.102;2023-02-15T19:36:43;29.58;;;17.77;;
34212;SDS011;20477;51.390;8.102;2023-02-15T19:39:19;29.45;;;15.73;;
34212;SDS011;20477;51.390;8.102;2023-02-15T19:41:50;27.25;;;14.88;;
34212;SDS011;20477;51.390;8.102;2023-02-15T19:44:18;30.42;;;14.15;;
34212;SDS011;20477;51.390;8.102;2023-02-15T19:46:46;29.80;;;18.95;;
34212;SDS011;20477;51.390;8.102;2023-02-15T19:49:14;26.25;;;15.10;;
34212;SDS011;20477;51.390;8.102;2023-02-15T19:51:42;23.98;;;14.57;;
34212;SDS011;20477;51.390;8.102;2023-02-15T19:54:21;27.48;;;15.85;;
34212;SDS011;20477;51.390;8.102;2023-02-15T19:56:54;28.98;;;14.55;;
34212;SDS011;20477;51.390;8.102;2023-02-15T19:59:23;26.90;;;14.52;;
34212;SDS011;20477;51.390;8.102;2023-02-15T20:01:52;24.83;;;14.15;;
34212;SDS011;20477;51.390;8.102;2023-02-15T20:04:21;27.67;;;14.90;;
34212;SDS011;20477;51.390;8.102;2023-02-15T20:06:49;26.17;;;15.07;;
34212;SDS011;20477;51.390;8.102;2023-02-15T20:09:21;29.55;;;15.32;;
34212;SDS011;20477;51.390;8.102;2023-02-15T20:11:51;32.70;;;16.25;;
34212;SDS011;20477;51.390;8.102;2023-02-15T20:14:20;25.20;;;15.52;;
34212;SDS011;20477;51.390;8.102;2023-02-15T20:16:48;27.55;;;16.00;;
34212;SDS011;20477;51.390;8.102;2023-02-15T20:19:16;37.95;;;22.20;;
34212;SDS011;20477;51.390;8.102;2023-02-15T20:21:45;26.90;;;17.23;;
34212;SDS011;20477;51.390;8.102;2023-02-15T20:24:18;34.97;;;20.00;;
34212;SDS011;20477;51.390;8.102;2023-02-15T20:26:48;28.15;;;17.35;;
34212;SDS011;20477;51.390;8.102;2023-02-15T20:29:17;25.50;;;15.25;;
34212;SDS011;20477;51.390;8.102;2023-02-15T20:31:47;31.10;;;16.70;;
34212;SDS011;20477;51.390;8.102;2023-02-15T20:34:16;26.42;;;15.77;;
34212;SDS011;20477;51.390;8.102;2023-02-15T20:36:44;26.83;;;16.77;;
34212;SDS011;20477;51.390;8.102;2023-02-15T20:39:13;26.98;;;14.90;;
34212;SDS011;20477;51.390;8.102;2023-02-15T20:41:44;29.70;;;16.27;;
34212;SDS011;20477;51.390;8.102;2023-02-15T20:44:15;30.35;;;16.92;;
34212;SDS011;20477;51.390;8.102;2023-02-15T20:46:46;28.20;;;16.33;;
34212;SDS011;20477;51.390;8.102;2023-02-15T20:49:14;31.52;;;17.85;;
34212;SDS011;20477;51.390;8.102;2023-02-15T20:51:43;33.50;;;19.83;;
34212;SDS011;20477;51.390;8.102;2023-02-15T20:54:13;40.05;;;20.42;;
34212;SDS011;20477;51.390;8.102;2023-02-15T20:56:45;34.25;;;19.08;;
34212;SDS011;20477;51.390;8.102;2023-02-15T20:59:18;32.08;;;18.48;;
34212;SDS011;20477;51.390;8.102;2023-02-15T21:01:53;30.23;;;18.35;;
34212;SDS011;20477;51.390;8.102;2023-02-15T21:04:27;27.92;;;15.95;;
34212;SDS011;20477;51.390;8.102;2023-02-15T21:06:56;28.65;;;15.27;;
34212;SDS011;20477;51.390;8.102;2023-02-15T21:09:25;25.00;;;14.70;;
34212;SDS011;20477;51.390;8.102;2023-02-15T21:11:55;22.98;;;13.60;;
34212;SDS011;20477;51.390;8.102;2023-02-15T21:14:25;27.38;;;14.88;;
34212;SDS011;20477;51.390;8.102;2023-02-15T21:16:54;29.52;;;15.15;;
34212;SDS011;20477;51.390;8.102;2023-02-15T21:19:23;28.77;;;15.85;;
34212;SDS011;20477;51.390;8.102;2023-02-15T21:21:51;35.97;;;17.05;;
34212;SDS011;20477;51.390;8.102;2023-02-15T21:24:22;27.30;;;15.88;;
34212;SDS011;20477;51.390;8.102;2023-02-15T21:26:51;29.13;;;15.65;;
34212;SDS011;20477;51.390;8.102;2023-02-15T21:29:22;29.60;;;16.48;;
34212;SDS011;20477;51.390;8.102;2023-02-15T21:31:51;34.33;;;16.95;;
34212;SDS011;20477;51.390;8.102;2023-02-15T21:34:20;36.95;;;18.83;;
34212;SDS011;20477;51.390;8.102;2023-02-15T21:36:48;30.55;;;17.48;;
34212;SDS011;20477;51.390;8.102;2023-02-15T21:39:18;34.70;;;18.85;;
34212;SDS011;20477;51.390;8.102;2023-02-15T21:41:48;30.77;;;18.35;;
34212;SDS011;20477;51.390;8.102;2023-02-15T21:44:36;33.15;;;18.23;;
34212;SDS011;20477;51.390;8.102;2023-02-15T21:47:22;30.65;;;18.58;;
34212;SDS011;20477;51.390;8.102;2023-02-15T21:50:09;38.00;;;19.27;;
34212;SDS011;20477;51.390;8.102;2023-02-15T21:52:56;32.38;;;18.50;;
34212;SDS011;20477;51.390;8.102;2023-02-15T21:55:24;29.63;;;17.60;;
34212;SDS011;20477;51.390;8.102;2023-02-15T21:57:53;27.55;;;17.20;;
34212;SDS011;20477;51.390;8.102;2023-02-15T22:00:23;35.42;;;19.10;;
34212;SDS011;20477;51.390;8.102;2023-02-15T22:02:54;34.70;;;20.30;;
34212;SDS011;20477;51.390;8.102;2023-02-15T22:05:24;38.00;;;21.55;;
34212;SDS011;20477;51.390;8.102;2023-02-15T22:07:53;39.25;;;23.05;;
34212;SDS011;20477;51.390;8.102;2023-02-15T22:10:22;43.65;;;23.42;;
34212;SDS011;20477;51.390;8.102;2023-02-15T22:12:51;35.67;;;21.00;;
34212;SDS011;20477;51.390;8.102;2023-02-15T22:15:22;32.42;;;20.95;;
34212;SDS011;20477;51.390;8.102;2023-02-15T22:17:52;36.75;;;20.52;;
34212;SDS011;20477;51.390;8.102;2023-02-15T22:20:21;36.55;;;20.42;;
34212;SDS011;20477;51.390;8.102;2023-02-15T22:22:51;36.45;;;20.83;;